Rhea — YP3227 — position and weather

sailwx.info

Track history (hours):
 
Tides and Currents Weather Stations Pressure Air Temp Water Temp Dewpoint Dewpoint Depression Visibility Wind Speed Wind Dir Waves Ship Positions

Rhea

Last reported at 2017-Dec-08 06:14 UTC. Time now 2017-Dec-12 02:56 UTC.
Position N 44°18' E 028°03'.

Length 80 m; draft 1.1 m.

Type: Ship. MMSI: 264163227.

Date/timePositionNaut miles runAvg speedWind from/ knotsBaromVisibWave heightAir tempDewpointWater temp
2017-Dec-08 06:14N 44°18' E 028°03'1 5.5
2017-Dec-08 05:58N 44°17' E 028°05'3 5.6
2017-Dec-08 05:30N 44°16' E 028°08'3 5.9
2017-Dec-08 05:00N 44°16' E 028°12'3 5.9
2017-Dec-08 04:30N 44°15' E 028°16'2 3.0
2017-Dec-08 03:56N 44°15' E 028°18'0 0.0
2017-Dec-08 03:29N 44°15' E 028°18'0 0.0
2017-Dec-08 02:56N 44°15' E 028°18'0 0.0
2017-Dec-08 02:29N 44°15' E 028°18'0 0.0
2017-Dec-08 01:50N 44°15' E 028°18'0 0.0
2017-Dec-08 01:26N 44°15' E 028°18'0 0.0
2017-Dec-08 00:56N 44°15' E 028°18'0 0.0
2017-Dec-08 00:26N 44°15' E 028°18'0 0.0
2017-Dec-07 23:56N 44°15' E 028°18'0 0.0
2017-Dec-07 23:08N 44°15' E 028°18'0 0.0
2017-Dec-07 22:56N 44°15' E 028°18'0 0.0
2017-Dec-07 22:17N 44°15' E 028°18'0 0.0
2017-Dec-07 21:56N 44°15' E 028°18'0 0.0
2017-Dec-07 21:08N 44°15' E 028°18'0 0.0
2017-Dec-07 20:50N 44°15' E 028°18'0 0.0
2017-Dec-07 20:26N 44°15' E 028°18'0 0.0
2017-Dec-07 19:56N 44°15' E 028°18'0 0.0
2017-Dec-07 19:26N 44°15' E 028°18'0 0.0
2017-Dec-07 18:56N 44°15' E 028°18'0 0.0
2017-Dec-07 18:26N 44°15' E 028°18'0 0.0
2017-Dec-07 17:56N 44°15' E 028°18'1 1.4
2017-Dec-07 17:30N 44°15' E 028°19'3 5.3
2017-Dec-07 17:00N 44°14' E 028°22'3 5.8
2017-Dec-07 16:30N 44°11' E 028°24'7 5.2
2017-Dec-07 15:04N 44°06' E 028°32'0 5.9
2017-Dec-07 15:00N 44°06' E 028°32'3 5.9
2017-Dec-07 14:30N 44°06' E 028°36'1 1.5
2017-Dec-07 13:59N 44°06' E 028°37'1 3.0
2017-Dec-07 13:31N 44°07' E 028°39'0 0.5
2017-Dec-07 13:00N 44°07' E 028°39'0 0.0
2017-Dec-07 12:30N 44°07' E 028°39'0 0.0
2017-Dec-07 12:00N 44°07' E 028°39'0 0.0
2017-Dec-07 11:30N 44°07' E 028°39'0 0.0
2017-Dec-07 11:00N 44°07' E 028°39'0 0.0
2017-Dec-07 10:30N 44°07' E 028°39'0 0.0
2017-Dec-07 10:00N 44°07' E 028°39'0 0.0
2017-Dec-07 09:30N 44°07' E 028°39'0 0.0
2017-Dec-07 09:00N 44°07' E 028°39'0 0.0
2017-Dec-07 08:30N 44°07' E 028°39'0 0.0
2017-Dec-07 08:00N 44°07' E 028°39'0 0.0
2017-Dec-07 07:30N 44°07' E 028°39'0 0.0
2017-Dec-07 07:00N 44°07' E 028°39'0 0.0
2017-Dec-07 06:30N 44°07' E 028°39'0 0.0
2017-Dec-07 06:00N 44°07' E 028°39'0 0.0
2017-Dec-07 05:30N 44°07' E 028°39'0 0.0
2017-Dec-07 05:00N 44°07' E 028°39'0 0.0
2017-Dec-07 04:30N 44°07' E 028°39'0 0.0
2017-Dec-07 04:00N 44°07' E 028°39'0 0.0
2017-Dec-07 03:27N 44°07' E 028°39'0 0.0
2017-Dec-07 03:00N 44°07' E 028°39'0 0.0
2017-Dec-07 02:30N 44°07' E 028°39'0 0.0
2017-Dec-07 02:00N 44°07' E 028°39'0 0.0
2017-Dec-07 01:30N 44°07' E 028°39'0 0.0
2017-Dec-07 01:00N 44°07' E 028°39'0 0.0
2017-Dec-07 00:30N 44°07' E 028°39'0 0.0
2017-Dec-07 00:00N 44°07' E 028°39'0 0.0
2017-Dec-06 23:30N 44°07' E 028°39'0 0.0
2017-Dec-06 23:00N 44°07' E 028°39'0 0.0
2017-Dec-06 22:30N 44°07' E 028°39'0 0.0
2017-Dec-06 22:00N 44°07' E 028°39'0 0.0
2017-Dec-06 21:30N 44°07' E 028°39'0 0.0
2017-Dec-06 21:00N 44°07' E 028°39'  
2017-Dec-04 10:24N 44°07' E 028°39'0 0.0
2017-Dec-04 10:00N 44°07' E 028°39'0 0.0
2017-Dec-04 09:30N 44°07' E 028°39'0 0.0
2017-Dec-04 09:00N 44°07' E 028°39'0 0.0
2017-Dec-04 08:30N 44°07' E 028°39'0 0.0
2017-Dec-04 08:00N 44°07' E 028°39'0 0.0
2017-Dec-04 07:30N 44°07' E 028°39'0 0.0
2017-Dec-04 07:00N 44°07' E 028°39'0 0.0
2017-Dec-04 06:30N 44°07' E 028°39'0 0.0
2017-Dec-04 06:00N 44°07' E 028°39'0 0.0
2017-Dec-04 05:30N 44°07' E 028°39'0 0.0
2017-Dec-04 05:00N 44°07' E 028°39'0 0.0
2017-Dec-04 04:30N 44°07' E 028°39'0 0.0
2017-Dec-04 04:00N 44°07' E 028°39'0 0.0
2017-Dec-04 03:30N 44°07' E 028°39'0 0.0
2017-Dec-04 03:00N 44°07' E 028°39'0 0.0
2017-Dec-04 02:30N 44°07' E 028°39'0 0.0
2017-Dec-04 02:00N 44°07' E 028°39'0 0.0
2017-Dec-04 01:30N 44°07' E 028°39'0 0.0
2017-Dec-04 01:00N 44°07' E 028°39'0 0.0
2017-Dec-04 00:27N 44°07' E 028°39'0 0.0
2017-Dec-04 00:00N 44°07' E 028°39'0 0.0
2017-Dec-03 23:27N 44°07' E 028°39'0 0.0
2017-Dec-03 23:00N 44°07' E 028°39'0 0.0
2017-Dec-03 22:30N 44°07' E 028°39'0 0.0
2017-Dec-03 21:57N 44°07' E 028°39'0 0.0
2017-Dec-03 21:30N 44°07' E 028°39'0 0.0
2017-Dec-03 20:57N 44°07' E 028°39'0 0.0
2017-Dec-03 20:30N 44°07' E 028°39'0 0.0
2017-Dec-03 19:57N 44°07' E 028°39'0 0.0
2017-Dec-03 19:30N 44°07' E 028°39'0 0.0
2017-Dec-03 19:00N 44°07' E 028°39'0 0.0
2017-Dec-03 18:30N 44°07' E 028°39'0 0.0
2017-Dec-03 18:00N 44°07' E 028°39'0 0.0
2017-Dec-03 17:30N 44°07' E 028°39'0 0.0
2017-Dec-03 17:00N 44°07' E 028°39'0 0.0
2017-Dec-03 16:30N 44°07' E 028°39'0 0.0
2017-Dec-03 16:00N 44°07' E 028°39'0 0.0
2017-Dec-03 15:30N 44°07' E 028°39'0 0.1
2017-Dec-03 15:00N 44°07' E 028°39'0 0.0
2017-Dec-03 14:30N 44°07' E 028°39'0 0.0
2017-Dec-03 14:00N 44°07' E 028°39'0 0.0
2017-Dec-03 13:30N 44°07' E 028°39'0 0.0
2017-Dec-03 13:00N 44°07' E 028°39'0 0.0
2017-Dec-03 12:30N 44°07' E 028°39'0 0.0
2017-Dec-03 12:00N 44°07' E 028°39'0 0.0
2017-Dec-03 11:30N 44°07' E 028°39'0 0.0
2017-Dec-03 11:00N 44°07' E 028°39'0 0.0
2017-Dec-03 10:27N 44°07' E 028°39'0 0.0
2017-Dec-03 09:57N 44°07' E 028°39'0 0.0
2017-Dec-03 09:30N 44°07' E 028°39'0 0.0
2017-Dec-03 09:00N 44°07' E 028°39'0 0.0
2017-Dec-03 08:30N 44°07' E 028°39'0 0.0
2017-Dec-03 08:00N 44°07' E 028°39'0 0.0
2017-Dec-03 07:30N 44°07' E 028°39'0 0.0
2017-Dec-03 07:00N 44°07' E 028°39'0 0.0
2017-Dec-03 06:30N 44°07' E 028°39'0 0.0
2017-Dec-03 06:00N 44°07' E 028°39'0 0.0
2017-Dec-03 05:30N 44°07' E 028°39'0 0.0
2017-Dec-03 05:00N 44°07' E 028°39'0 0.0
2017-Dec-03 04:30N 44°07' E 028°39'0 0.0
2017-Dec-03 04:00N 44°07' E 028°39'0 0.0
2017-Dec-03 03:30N 44°07' E 028°39'0 0.0
2017-Dec-03 03:00N 44°07' E 028°39'0 0.0
2017-Dec-03 02:27N 44°07' E 028°39'0 0.0
2017-Dec-03 02:00N 44°07' E 028°39'0 0.0
2017-Dec-03 01:27N 44°07' E 028°39'0 0.0
2017-Dec-03 01:00N 44°07' E 028°39'0 0.0
2017-Dec-03 00:30N 44°07' E 028°39'0 0.0
2017-Dec-03 00:00N 44°07' E 028°39'0 0.0
2017-Dec-02 23:30N 44°07' E 028°39'0 0.0
2017-Dec-02 23:00N 44°07' E 028°39'0 0.0
2017-Dec-02 22:30N 44°07' E 028°39'0 0.0
2017-Dec-02 22:00N 44°07' E 028°39'0 0.0
2017-Dec-02 21:27N 44°07' E 028°39'0 0.0
2017-Dec-02 20:57N 44°07' E 028°39'0 0.0
2017-Dec-02 20:30N 44°07' E 028°39'0 0.0
2017-Dec-02 20:00N 44°07' E 028°39'0 0.0
2017-Dec-02 19:30N 44°07' E 028°39'0 0.0
2017-Dec-02 19:00N 44°07' E 028°39'0 0.0
2017-Dec-02 18:30N 44°07' E 028°39'0 0.0
2017-Dec-02 18:00N 44°07' E 028°39'0 0.0
2017-Dec-02 17:30N 44°07' E 028°39'0 0.0
2017-Dec-02 17:00N 44°07' E 028°39'0 0.0
2017-Dec-02 16:30N 44°07' E 028°39'0 0.0
2017-Dec-02 16:00N 44°07' E 028°39'0 0.0
2017-Dec-02 15:30N 44°07' E 028°39'0 0.0
2017-Dec-02 15:00N 44°07' E 028°39'0 0.0
2017-Dec-02 14:30N 44°07' E 028°39'0 0.0
2017-Dec-02 13:57N 44°07' E 028°39'0 0.0
2017-Dec-02 13:30N 44°07' E 028°39'0 0.0
2017-Dec-02 13:00N 44°07' E 028°39'0 0.0
2017-Dec-02 12:30N 44°07' E 028°39'0 0.0
2017-Dec-02 12:00N 44°07' E 028°39'0 0.0
2017-Dec-02 11:30N 44°07' E 028°39'0 0.0
2017-Dec-02 11:00N 44°07' E 028°39'0 0.0
2017-Dec-02 10:30N 44°07' E 028°39'0 0.0
2017-Dec-02 10:00N 44°07' E 028°39'0 0.0
2017-Dec-02 09:30N 44°07' E 028°39'0 0.0
2017-Dec-02 09:00N 44°07' E 028°39'0 0.0
2017-Dec-02 08:30N 44°07' E 028°39'0 0.0
2017-Dec-02 08:00N 44°07' E 028°39'0 0.0
2017-Dec-02 07:30N 44°07' E 028°39'0 0.0
2017-Dec-02 07:00N 44°07' E 028°39'0 0.0
2017-Dec-02 06:30N 44°07' E 028°39'0 0.0
2017-Dec-02 06:00N 44°07' E 028°39'0 0.0
2017-Dec-02 05:27N 44°07' E 028°39'0 0.0
2017-Dec-02 05:00N 44°07' E 028°39'0 0.0
2017-Dec-02 04:27N 44°07' E 028°39'0 0.0
2017-Dec-02 04:00N 44°07' E 028°39'0 0.0
2017-Dec-02 03:30N 44°07' E 028°39'0 0.0
2017-Dec-02 03:00N 44°07' E 028°39'0 0.0
2017-Dec-02 02:30N 44°07' E 028°39'0 0.0
2017-Dec-02 02:00N 44°07' E 028°39'0 0.0
2017-Dec-02 01:30N 44°07' E 028°39'0 0.0
2017-Dec-02 01:00N 44°07' E 028°39'0 0.0
2017-Dec-02 00:30N 44°07' E 028°39'0 0.0
2017-Dec-02 00:00N 44°07' E 028°39'0 0.0
2017-Dec-01 23:30N 44°07' E 028°39'0 0.0
2017-Dec-01 23:00N 44°07' E 028°39'0 0.0
2017-Dec-01 22:27N 44°07' E 028°39'0 0.0
2017-Dec-01 21:57N 44°07' E 028°39'0 0.0
2017-Dec-01 21:30N 44°07' E 028°39'0 0.0
2017-Dec-01 21:00N 44°07' E 028°39'0 0.0
2017-Dec-01 20:30N 44°07' E 028°39'0 0.0
2017-Dec-01 20:00N 44°07' E 028°39'0 0.0
2017-Dec-01 19:30N 44°07' E 028°39'0 0.0
2017-Dec-01 19:00N 44°07' E 028°39'0 0.0
2017-Dec-01 18:30N 44°07' E 028°39'0 0.0
2017-Dec-01 18:00N 44°07' E 028°39'0 0.0
2017-Dec-01 17:30N 44°07' E 028°39'0 0.0
2017-Dec-01 16:57N 44°07' E 028°39'0 0.0
2017-Dec-01 16:30N 44°07' E 028°39'0 0.0
2017-Dec-01 16:00N 44°07' E 028°39'0 0.0
2017-Dec-01 15:27N 44°07' E 028°39'0 0.0
2017-Dec-01 15:00N 44°07' E 028°39'0 0.0
2017-Dec-01 14:30N 44°07' E 028°39'0 0.0
2017-Dec-01 14:00N 44°07' E 028°39'0 0.0
2017-Dec-01 13:30N 44°07' E 028°39'0 0.0
2017-Dec-01 13:00N 44°07' E 028°39'0 0.0
2017-Dec-01 12:30N 44°07' E 028°39'0 0.0
2017-Dec-01 11:57N 44°07' E 028°39'0 0.0
2017-Dec-01 11:30N 44°07' E 028°39'0 0.0
2017-Dec-01 11:00N 44°07' E 028°39'0 0.0
2017-Dec-01 10:30N 44°07' E 028°39'0 0.0
2017-Dec-01 09:57N 44°07' E 028°39'0 0.0
2017-Dec-01 09:30N 44°07' E 028°39'0 0.0
2017-Dec-01 09:00N 44°07' E 028°39'0 0.0
2017-Dec-01 08:30N 44°07' E 028°39'0 0.0
2017-Dec-01 08:00N 44°07' E 028°39'0 0.0
2017-Dec-01 07:30N 44°07' E 028°39'0 0.0
2017-Dec-01 07:00N 44°07' E 028°39'0 0.0
2017-Dec-01 06:27N 44°07' E 028°39'0 0.0
2017-Dec-01 06:00N 44°07' E 028°39'0 0.0
2017-Dec-01 05:30N 44°07' E 028°39'0 0.0
2017-Dec-01 04:57N 44°07' E 028°39'0 0.0
2017-Dec-01 04:30N 44°07' E 028°39'0 0.0
2017-Dec-01 04:00N 44°07' E 028°39'0 0.0
2017-Dec-01 03:30N 44°07' E 028°39'0 0.0
2017-Dec-01 03:00N 44°07' E 028°39'0 0.0
2017-Dec-01 02:27N 44°07' E 028°39'0 0.0
2017-Dec-01 02:00N 44°07' E 028°39'0 0.0
2017-Dec-01 01:30N 44°07' E 028°39'0 0.0
2017-Dec-01 01:00N 44°07' E 028°39'0 0.0
2017-Dec-01 00:27N 44°07' E 028°39'0 0.0
2017-Dec-01 00:00N 44°07' E 028°39'0 0.0
2017-Nov-30 23:30N 44°07' E 028°39'0 0.0
2017-Nov-30 23:00N 44°07' E 028°39'0 0.0
2017-Nov-30 22:30N 44°07' E 028°39'0 0.0
2017-Nov-30 22:00N 44°07' E 028°39'0 0.0
2017-Nov-30 21:30N 44°07' E 028°39'0 0.0
2017-Nov-30 20:57N 44°07' E 028°39'0 0.0
2017-Nov-30 20:30N 44°07' E 028°39'0 0.0
2017-Nov-30 20:00N 44°07' E 028°39'0 0.0
2017-Nov-30 19:30N 44°07' E 028°39'0 0.0
2017-Nov-30 19:00N 44°07' E 028°39'0 0.0
2017-Nov-30 18:30N 44°07' E 028°39'0 0.0
2017-Nov-30 18:00N 44°07' E 028°39'0 0.0
2017-Nov-30 17:30N 44°07' E 028°39'0 0.0
2017-Nov-30 17:00N 44°07' E 028°39'0 0.0
2017-Nov-30 16:30N 44°07' E 028°39'0 0.0
2017-Nov-30 16:00N 44°07' E 028°39'0 0.0
2017-Nov-30 15:30N 44°07' E 028°39'0 0.0
2017-Nov-30 15:00N 44°07' E 028°39'0 0.0
2017-Nov-30 14:27N 44°07' E 028°39'0 0.0
2017-Nov-30 14:00N 44°07' E 028°39'0 0.0
2017-Nov-30 13:30N 44°07' E 028°39'0 0.0
2017-Nov-30 13:00N 44°07' E 028°39'0 0.0
2017-Nov-30 12:30N 44°07' E 028°39'0 0.0
2017-Nov-30 12:00N 44°07' E 028°39'0 0.0
2017-Nov-30 11:30N 44°07' E 028°39'0 0.0
2017-Nov-30 11:00N 44°07' E 028°39'0 0.0
2017-Nov-30 10:30N 44°07' E 028°39'0 0.0
2017-Nov-30 10:00N 44°07' E 028°39'0 0.0
2017-Nov-30 09:30N 44°07' E 028°39'0 0.0
2017-Nov-30 09:00N 44°07' E 028°39'0 0.0
2017-Nov-30 08:30N 44°07' E 028°39'0 0.0
2017-Nov-30 08:00N 44°07' E 028°39'0 0.0
2017-Nov-30 07:30N 44°07' E 028°39'0 0.0
2017-Nov-30 07:00N 44°07' E 028°39'0 0.0
2017-Nov-30 06:30N 44°07' E 028°39'0 0.0
2017-Nov-30 06:00N 44°07' E 028°39'0 0.0
2017-Nov-30 05:30N 44°07' E 028°39'0 0.0
2017-Nov-30 05:00N 44°07' E 028°39'0 0.0
2017-Nov-30 04:30N 44°07' E 028°39'0 0.0
2017-Nov-30 03:54N 44°07' E 028°39'0 0.0
2017-Nov-30 03:30N 44°07' E 028°39'0 0.0
2017-Nov-30 03:00N 44°07' E 028°39'0 0.0
2017-Nov-30 02:30N 44°07' E 028°39'0 0.0
2017-Nov-30 02:00N 44°07' E 028°39'0 0.0
2017-Nov-30 01:30N 44°07' E 028°39'0 0.0
2017-Nov-30 01:00N 44°07' E 028°39'0 0.0
2017-Nov-30 00:27N 44°07' E 028°39'0 0.0
2017-Nov-30 00:00N 44°07' E 028°39'0 0.0
2017-Nov-29 23:30N 44°07' E 028°39'0 0.0
2017-Nov-29 23:00N 44°07' E 028°39'0 0.0
2017-Nov-29 22:30N 44°07' E 028°39'0 0.0
2017-Nov-29 22:00N 44°07' E 028°39'0 0.0
2017-Nov-29 21:24N 44°07' E 028°39'0 0.0
2017-Nov-29 20:57N 44°07' E 028°39'0 0.0
2017-Nov-29 20:30N 44°07' E 028°39'0 0.0
2017-Nov-29 19:54N 44°07' E 028°39'0 0.0
2017-Nov-29 19:30N 44°07' E 028°39'0 0.0
2017-Nov-29 19:00N 44°07' E 028°39'0 0.0
2017-Nov-29 18:27N 44°07' E 028°39'0 0.0
2017-Nov-29 18:00N 44°07' E 028°39'0 0.0
2017-Nov-29 17:30N 44°07' E 028°39'0 0.0
2017-Nov-29 17:00N 44°07' E 028°39'0 0.0
2017-Nov-29 16:30N 44°07' E 028°39'0 0.0
2017-Nov-29 16:00N 44°07' E 028°39'0 0.0
2017-Nov-29 15:27N 44°07' E 028°39'0 0.0
2017-Nov-29 15:00N 44°07' E 028°39'0 0.0
2017-Nov-29 14:30N 44°07' E 028°39'0 0.0
2017-Nov-29 14:00N 44°07' E 028°39'0 0.0
2017-Nov-29 13:27N 44°07' E 028°39'0 0.0
2017-Nov-29 13:00N 44°07' E 028°39'0 0.0
2017-Nov-29 12:30N 44°07' E 028°39'0 0.0
2017-Nov-29 12:00N 44°07' E 028°39'0 0.0
2017-Nov-29 11:30N 44°07' E 028°39'0 0.0
2017-Nov-29 11:00N 44°07' E 028°39'0 0.3
2017-Nov-29 10:30N 44°07' E 028°39'0 0.5
2017-Nov-29 10:00N 44°07' E 028°39'0 0.0
2017-Nov-29 09:27N 44°07' E 028°39'0 0.0
2017-Nov-29 09:00N 44°07' E 028°39'0 0.0
2017-Nov-29 08:30N 44°07' E 028°39'0 0.3
2017-Nov-29 08:00N 44°07' E 028°39'0 0.5
2017-Nov-29 07:29N 44°07' E 028°39'0 0.0
2017-Nov-29 06:56N 44°07' E 028°39'0 0.0
2017-Nov-29 06:29N 44°07' E 028°39'0 0.0
2017-Nov-29 05:56N 44°07' E 028°39'0 0.0
2017-Nov-29 05:29N 44°07' E 028°39'0 0.0
2017-Nov-29 04:59N 44°07' E 028°39'0 0.0
2017-Nov-29 04:29N 44°07' E 028°39'0 0.0
2017-Nov-29 03:59N 44°07' E 028°39'0 0.0
2017-Nov-29 03:29N 44°07' E 028°39'0 0.0
2017-Nov-29 02:59N 44°07' E 028°39'0 0.0
2017-Nov-29 02:29N 44°07' E 028°39'0 0.0
2017-Nov-29 01:59N 44°07' E 028°39'0 0.0
2017-Nov-29 01:29N 44°07' E 028°39'0 0.0
2017-Nov-29 00:59N 44°07' E 028°39'0 0.0
2017-Nov-29 00:26N 44°07' E 028°39'0 0.0
2017-Nov-28 23:59N 44°07' E 028°39'0 0.0
2017-Nov-28 23:23N 44°07' E 028°39'0 0.0
2017-Nov-28 22:59N 44°07' E 028°39'0 0.0
2017-Nov-28 22:29N 44°07' E 028°39'0 0.0
2017-Nov-28 21:59N 44°07' E 028°39'0 0.0
2017-Nov-28 21:29N 44°07' E 028°39'0 0.0
2017-Nov-28 20:59N 44°07' E 028°39'0 0.0
2017-Nov-28 20:29N 44°07' E 028°39'0 0.0
2017-Nov-28 19:59N 44°07' E 028°39'0 0.0
2017-Nov-28 19:29N 44°07' E 028°39'0 0.0
2017-Nov-28 18:59N 44°07' E 028°39'0 0.0
2017-Nov-28 18:29N 44°07' E 028°39'0 0.0
2017-Nov-28 17:59N 44°07' E 028°39'0 0.0
2017-Nov-28 17:29N 44°07' E 028°39'0 0.0
2017-Nov-28 16:59N 44°07' E 028°39'0 0.0
2017-Nov-28 16:29N 44°07' E 028°39'0 0.0
2017-Nov-28 15:59N 44°07' E 028°39'0 0.0
2017-Nov-28 14:59N 44°07' E 028°39'0 0.0
2017-Nov-28 14:29N 44°07' E 028°39'0 0.0
2017-Nov-28 13:59N 44°07' E 028°39'0 0.0
2017-Nov-28 13:29N 44°07' E 028°39'0 0.0
2017-Nov-28 12:59N 44°07' E 028°39'0 0.0
2017-Nov-28 12:29N 44°07' E 028°39'0 0.0
2017-Nov-28 11:59N 44°07' E 028°39'0 0.0
2017-Nov-28 11:29N 44°07' E 028°39'0 0.0
2017-Nov-28 10:59N 44°07' E 028°39'0 0.0
2017-Nov-28 10:29N 44°07' E 028°39'0 0.0
2017-Nov-28 09:59N 44°07' E 028°39'0 0.0
2017-Nov-28 09:29N 44°07' E 028°39'0 0.0
2017-Nov-28 08:59N 44°07' E 028°39'0 0.0
2017-Nov-28 08:29N 44°07' E 028°39'0 0.0
2017-Nov-28 07:59N 44°07' E 028°39'0 0.0
2017-Nov-28 07:29N 44°07' E 028°39'0 0.0
2017-Nov-28 06:59N 44°07' E 028°39'0 0.0
2017-Nov-28 06:29N 44°07' E 028°39'  
Track history (hours):
 
Tides and Currents Weather Stations Pressure Air Temp Water Temp Dewpoint Dewpoint Depression Visibility Wind Speed Wind Dir Waves Ship Positions

Rhea

Last reported at 2017-Dec-08 06:14 UTC. Time now 2017-Dec-12 02:56 UTC.
Position N 44°18' E 028°03'.

Length 80 m; draft 1.1 m.

Type: Ship. MMSI: 264163227.

Date/timePositionNaut miles runAvg speedWind from/ knotsBaromVisibWave heightAir tempDewpointWater temp
2017-Dec-08 06:14N 44°18' E 028°03'1 5.5
2017-Dec-08 05:58N 44°17' E 028°05'3 5.6
2017-Dec-08 05:30N 44°16' E 028°08'3 5.9
2017-Dec-08 05:00N 44°16' E 028°12'3 5.9
2017-Dec-08 04:30N 44°15' E 028°16'2 3.0
2017-Dec-08 03:56N 44°15' E 028°18'0 0.0
2017-Dec-08 03:29N 44°15' E 028°18'0 0.0
2017-Dec-08 02:56N 44°15' E 028°18'0 0.0
2017-Dec-08 02:29N 44°15' E 028°18'0 0.0
2017-Dec-08 01:50N 44°15' E 028°18'0 0.0
2017-Dec-08 01:26N 44°15' E 028°18'0 0.0
2017-Dec-08 00:56N 44°15' E 028°18'0 0.0
2017-Dec-08 00:26N 44°15' E 028°18'0 0.0
2017-Dec-07 23:56N 44°15' E 028°18'0 0.0
2017-Dec-07 23:08N 44°15' E 028°18'0 0.0
2017-Dec-07 22:56N 44°15' E 028°18'0 0.0
2017-Dec-07 22:17N 44°15' E 028°18'0 0.0
2017-Dec-07 21:56N 44°15' E 028°18'0 0.0
2017-Dec-07 21:08N 44°15' E 028°18'0 0.0
2017-Dec-07 20:50N 44°15' E 028°18'0 0.0
2017-Dec-07 20:26N 44°15' E 028°18'0 0.0
2017-Dec-07 19:56N 44°15' E 028°18'0 0.0
2017-Dec-07 19:26N 44°15' E 028°18'0 0.0
2017-Dec-07 18:56N 44°15' E 028°18'0 0.0
2017-Dec-07 18:26N 44°15' E 028°18'0 0.0
2017-Dec-07 17:56N 44°15' E 028°18'1 1.4
2017-Dec-07 17:30N 44°15' E 028°19'3 5.3
2017-Dec-07 17:00N 44°14' E 028°22'3 5.8
2017-Dec-07 16:30N 44°11' E 028°24'7 5.2
2017-Dec-07 15:04N 44°06' E 028°32'0 5.9
2017-Dec-07 15:00N 44°06' E 028°32'3 5.9
2017-Dec-07 14:30N 44°06' E 028°36'1 1.5
2017-Dec-07 13:59N 44°06' E 028°37'1 3.0
2017-Dec-07 13:31N 44°07' E 028°39'0 0.5
2017-Dec-07 13:00N 44°07' E 028°39'0 0.0
2017-Dec-07 12:30N 44°07' E 028°39'0 0.0
2017-Dec-07 12:00N 44°07' E 028°39'0 0.0
2017-Dec-07 11:30N 44°07' E 028°39'0 0.0
2017-Dec-07 11:00N 44°07' E 028°39'0 0.0
2017-Dec-07 10:30N 44°07' E 028°39'0 0.0
2017-Dec-07 10:00N 44°07' E 028°39'0 0.0
2017-Dec-07 09:30N 44°07' E 028°39'0 0.0
2017-Dec-07 09:00N 44°07' E 028°39'0 0.0
2017-Dec-07 08:30N 44°07' E 028°39'0 0.0
2017-Dec-07 08:00N 44°07' E 028°39'0 0.0
2017-Dec-07 07:30N 44°07' E 028°39'0 0.0
2017-Dec-07 07:00N 44°07' E 028°39'0 0.0
2017-Dec-07 06:30N 44°07' E 028°39'0 0.0
2017-Dec-07 06:00N 44°07' E 028°39'0 0.0
2017-Dec-07 05:30N 44°07' E 028°39'0 0.0
2017-Dec-07 05:00N 44°07' E 028°39'0 0.0
2017-Dec-07 04:30N 44°07' E 028°39'0 0.0
2017-Dec-07 04:00N 44°07' E 028°39'0 0.0
2017-Dec-07 03:27N 44°07' E 028°39'0 0.0
2017-Dec-07 03:00N 44°07' E 028°39'0 0.0
2017-Dec-07 02:30N 44°07' E 028°39'0 0.0
2017-Dec-07 02:00N 44°07' E 028°39'0 0.0
2017-Dec-07 01:30N 44°07' E 028°39'0 0.0
2017-Dec-07 01:00N 44°07' E 028°39'0 0.0
2017-Dec-07 00:30N 44°07' E 028°39'0 0.0
2017-Dec-07 00:00N 44°07' E 028°39'0 0.0
2017-Dec-06 23:30N 44°07' E 028°39'0 0.0
2017-Dec-06 23:00N 44°07' E 028°39'0 0.0
2017-Dec-06 22:30N 44°07' E 028°39'0 0.0
2017-Dec-06 22:00N 44°07' E 028°39'0 0.0
2017-Dec-06 21:30N 44°07' E 028°39'0 0.0
2017-Dec-06 21:00N 44°07' E 028°39'  
2017-Dec-04 10:24N 44°07' E 028°39'0 0.0
2017-Dec-04 10:00N 44°07' E 028°39'0 0.0
2017-Dec-04 09:30N 44°07' E 028°39'0 0.0
2017-Dec-04 09:00N 44°07' E 028°39'0 0.0
2017-Dec-04 08:30N 44°07' E 028°39'0 0.0
2017-Dec-04 08:00N 44°07' E 028°39'0 0.0
2017-Dec-04 07:30N 44°07' E 028°39'0 0.0
2017-Dec-04 07:00N 44°07' E 028°39'0 0.0
2017-Dec-04 06:30N 44°07' E 028°39'0 0.0
2017-Dec-04 06:00N 44°07' E 028°39'0 0.0
2017-Dec-04 05:30N 44°07' E 028°39'0 0.0
2017-Dec-04 05:00N 44°07' E 028°39'0 0.0
2017-Dec-04 04:30N 44°07' E 028°39'0 0.0
2017-Dec-04 04:00N 44°07' E 028°39'0 0.0
2017-Dec-04 03:30N 44°07' E 028°39'0 0.0
2017-Dec-04 03:00N 44°07' E 028°39'0 0.0
2017-Dec-04 02:30N 44°07' E 028°39'0 0.0
2017-Dec-04 02:00N 44°07' E 028°39'0 0.0
2017-Dec-04 01:30N 44°07' E 028°39'0 0.0
2017-Dec-04 01:00N 44°07' E 028°39'0 0.0
2017-Dec-04 00:27N 44°07' E 028°39'0 0.0
2017-Dec-04 00:00N 44°07' E 028°39'0 0.0
2017-Dec-03 23:27N 44°07' E 028°39'0 0.0
2017-Dec-03 23:00N 44°07' E 028°39'0 0.0
2017-Dec-03 22:30N 44°07' E 028°39'0 0.0
2017-Dec-03 21:57N 44°07' E 028°39'0 0.0
2017-Dec-03 21:30N 44°07' E 028°39'0 0.0
2017-Dec-03 20:57N 44°07' E 028°39'0 0.0
2017-Dec-03 20:30N 44°07' E 028°39'0 0.0
2017-Dec-03 19:57N 44°07' E 028°39'0 0.0
2017-Dec-03 19:30N 44°07' E 028°39'0 0.0
2017-Dec-03 19:00N 44°07' E 028°39'0 0.0
2017-Dec-03 18:30N 44°07' E 028°39'0 0.0
2017-Dec-03 18:00N 44°07' E 028°39'0 0.0
2017-Dec-03 17:30N 44°07' E 028°39'0 0.0
2017-Dec-03 17:00N 44°07' E 028°39'0 0.0
2017-Dec-03 16:30N 44°07' E 028°39'0 0.0
2017-Dec-03 16:00N 44°07' E 028°39'0 0.0
2017-Dec-03 15:30N 44°07' E 028°39'0 0.1
2017-Dec-03 15:00N 44°07' E 028°39'0 0.0
2017-Dec-03 14:30N 44°07' E 028°39'0 0.0
2017-Dec-03 14:00N 44°07' E 028°39'0 0.0
2017-Dec-03 13:30N 44°07' E 028°39'0 0.0
2017-Dec-03 13:00N 44°07' E 028°39'0 0.0
2017-Dec-03 12:30N 44°07' E 028°39'0 0.0
2017-Dec-03 12:00N 44°07' E 028°39'0 0.0
2017-Dec-03 11:30N 44°07' E 028°39'0 0.0
2017-Dec-03 11:00N 44°07' E 028°39'0 0.0
2017-Dec-03 10:27N 44°07' E 028°39'0 0.0
2017-Dec-03 09:57N 44°07' E 028°39'0 0.0
2017-Dec-03 09:30N 44°07' E 028°39'0 0.0
2017-Dec-03 09:00N 44°07' E 028°39'0 0.0
2017-Dec-03 08:30N 44°07' E 028°39'0 0.0
2017-Dec-03 08:00N 44°07' E 028°39'0 0.0
2017-Dec-03 07:30N 44°07' E 028°39'0 0.0
2017-Dec-03 07:00N 44°07' E 028°39'0 0.0
2017-Dec-03 06:30N 44°07' E 028°39'0 0.0
2017-Dec-03 06:00N 44°07' E 028°39'0 0.0
2017-Dec-03 05:30N 44°07' E 028°39'0 0.0
2017-Dec-03 05:00N 44°07' E 028°39'0 0.0
2017-Dec-03 04:30N 44°07' E 028°39'0 0.0
2017-Dec-03 04:00N 44°07' E 028°39'0 0.0
2017-Dec-03 03:30N 44°07' E 028°39'0 0.0
2017-Dec-03 03:00N 44°07' E 028°39'0 0.0
2017-Dec-03 02:27N 44°07' E 028°39'0 0.0
2017-Dec-03 02:00N 44°07' E 028°39'0 0.0
2017-Dec-03 01:27N 44°07' E 028°39'0 0.0
2017-Dec-03 01:00N 44°07' E 028°39'0 0.0
2017-Dec-03 00:30N 44°07' E 028°39'0 0.0
2017-Dec-03 00:00N 44°07' E 028°39'0 0.0
2017-Dec-02 23:30N 44°07' E 028°39'0 0.0
2017-Dec-02 23:00N 44°07' E 028°39'0 0.0
2017-Dec-02 22:30N 44°07' E 028°39'0 0.0
2017-Dec-02 22:00N 44°07' E 028°39'0 0.0
2017-Dec-02 21:27N 44°07' E 028°39'0 0.0
2017-Dec-02 20:57N 44°07' E 028°39'0 0.0
2017-Dec-02 20:30N 44°07' E 028°39'0 0.0
2017-Dec-02 20:00N 44°07' E 028°39'0 0.0
2017-Dec-02 19:30N 44°07' E 028°39'0 0.0
2017-Dec-02 19:00N 44°07' E 028°39'0 0.0
2017-Dec-02 18:30N 44°07' E 028°39'0 0.0
2017-Dec-02 18:00N 44°07' E 028°39'0 0.0
2017-Dec-02 17:30N 44°07' E 028°39'0 0.0
2017-Dec-02 17:00N 44°07' E 028°39'0 0.0
2017-Dec-02 16:30N 44°07' E 028°39'0 0.0
2017-Dec-02 16:00N 44°07' E 028°39'0 0.0
2017-Dec-02 15:30N 44°07' E 028°39'0 0.0
2017-Dec-02 15:00N 44°07' E 028°39'0 0.0
2017-Dec-02 14:30N 44°07' E 028°39'0 0.0
2017-Dec-02 13:57N 44°07' E 028°39'0 0.0
2017-Dec-02 13:30N 44°07' E 028°39'0 0.0
2017-Dec-02 13:00N 44°07' E 028°39'0 0.0
2017-Dec-02 12:30N 44°07' E 028°39'0 0.0
2017-Dec-02 12:00N 44°07' E 028°39'0 0.0
2017-Dec-02 11:30N 44°07' E 028°39'0 0.0
2017-Dec-02 11:00N 44°07' E 028°39'0 0.0
2017-Dec-02 10:30N 44°07' E 028°39'0 0.0
2017-Dec-02 10:00N 44°07' E 028°39'0 0.0
2017-Dec-02 09:30N 44°07' E 028°39'0 0.0
2017-Dec-02 09:00N 44°07' E 028°39'0 0.0
2017-Dec-02 08:30N 44°07' E 028°39'0 0.0
2017-Dec-02 08:00N 44°07' E 028°39'0 0.0
2017-Dec-02 07:30N 44°07' E 028°39'0 0.0
2017-Dec-02 07:00N 44°07' E 028°39'0 0.0
2017-Dec-02 06:30N 44°07' E 028°39'0 0.0
2017-Dec-02 06:00N 44°07' E 028°39'0 0.0
2017-Dec-02 05:27N 44°07' E 028°39'0 0.0
2017-Dec-02 05:00N 44°07' E 028°39'0 0.0
2017-Dec-02 04:27N 44°07' E 028°39'0 0.0
2017-Dec-02 04:00N 44°07' E 028°39'0 0.0
2017-Dec-02 03:30N 44°07' E 028°39'0 0.0
2017-Dec-02 03:00N 44°07' E 028°39'0 0.0
2017-Dec-02 02:30N 44°07' E 028°39'0 0.0
2017-Dec-02 02:00N 44°07' E 028°39'0 0.0
2017-Dec-02 01:30N 44°07' E 028°39'0 0.0
2017-Dec-02 01:00N 44°07' E 028°39'0 0.0
2017-Dec-02 00:30N 44°07' E 028°39'0 0.0
2017-Dec-02 00:00N 44°07' E 028°39'0 0.0
2017-Dec-01 23:30N 44°07' E 028°39'0 0.0
2017-Dec-01 23:00N 44°07' E 028°39'0 0.0
2017-Dec-01 22:27N 44°07' E 028°39'0 0.0
2017-Dec-01 21:57N 44°07' E 028°39'0 0.0
2017-Dec-01 21:30N 44°07' E 028°39'0 0.0
2017-Dec-01 21:00N 44°07' E 028°39'0 0.0
2017-Dec-01 20:30N 44°07' E 028°39'0 0.0
2017-Dec-01 20:00N 44°07' E 028°39'0 0.0
2017-Dec-01 19:30N 44°07' E 028°39'0 0.0
2017-Dec-01 19:00N 44°07' E 028°39'0 0.0
2017-Dec-01 18:30N 44°07' E 028°39'0 0.0
2017-Dec-01 18:00N 44°07' E 028°39'0 0.0
2017-Dec-01 17:30N 44°07' E 028°39'0 0.0
2017-Dec-01 16:57N 44°07' E 028°39'0 0.0
2017-Dec-01 16:30N 44°07' E 028°39'0 0.0
2017-Dec-01 16:00N 44°07' E 028°39'0 0.0
2017-Dec-01 15:27N 44°07' E 028°39'0 0.0
2017-Dec-01 15:00N 44°07' E 028°39'0 0.0
2017-Dec-01 14:30N 44°07' E 028°39'0 0.0
2017-Dec-01 14:00N 44°07' E 028°39'0 0.0
2017-Dec-01 13:30N 44°07' E 028°39'0 0.0
2017-Dec-01 13:00N 44°07' E 028°39'0 0.0
2017-Dec-01 12:30N 44°07' E 028°39'0 0.0
2017-Dec-01 11:57N 44°07' E 028°39'0 0.0
2017-Dec-01 11:30N 44°07' E 028°39'0 0.0
2017-Dec-01 11:00N 44°07' E 028°39'0 0.0
2017-Dec-01 10:30N 44°07' E 028°39'0 0.0
2017-Dec-01 09:57N 44°07' E 028°39'0 0.0
2017-Dec-01 09:30N 44°07' E 028°39'0 0.0
2017-Dec-01 09:00N 44°07' E 028°39'0 0.0
2017-Dec-01 08:30N 44°07' E 028°39'0 0.0
2017-Dec-01 08:00N 44°07' E 028°39'0 0.0
2017-Dec-01 07:30N 44°07' E 028°39'0 0.0
2017-Dec-01 07:00N 44°07' E 028°39'0 0.0
2017-Dec-01 06:27N 44°07' E 028°39'0 0.0
2017-Dec-01 06:00N 44°07' E 028°39'0 0.0
2017-Dec-01 05:30N 44°07' E 028°39'0 0.0
2017-Dec-01 04:57N 44°07' E 028°39'0 0.0
2017-Dec-01 04:30N 44°07' E 028°39'0 0.0
2017-Dec-01 04:00N 44°07' E 028°39'0 0.0
2017-Dec-01 03:30N 44°07' E 028°39'0 0.0
2017-Dec-01 03:00N 44°07' E 028°39'0 0.0
2017-Dec-01 02:27N 44°07' E 028°39'0 0.0
2017-Dec-01 02:00N 44°07' E 028°39'0 0.0
2017-Dec-01 01:30N 44°07' E 028°39'0 0.0
2017-Dec-01 01:00N 44°07' E 028°39'0 0.0
2017-Dec-01 00:27N 44°07' E 028°39'0 0.0
2017-Dec-01 00:00N 44°07' E 028°39'0 0.0
2017-Nov-30 23:30N 44°07' E 028°39'0 0.0
2017-Nov-30 23:00N 44°07' E 028°39'0 0.0
2017-Nov-30 22:30N 44°07' E 028°39'0 0.0
2017-Nov-30 22:00N 44°07' E 028°39'0 0.0
2017-Nov-30 21:30N 44°07' E 028°39'0 0.0
2017-Nov-30 20:57N 44°07' E 028°39'0 0.0
2017-Nov-30 20:30N 44°07' E 028°39'0 0.0
2017-Nov-30 20:00N 44°07' E 028°39'0 0.0
2017-Nov-30 19:30N 44°07' E 028°39'0 0.0
2017-Nov-30 19:00N 44°07' E 028°39'0 0.0
2017-Nov-30 18:30N 44°07' E 028°39'0 0.0
2017-Nov-30 18:00N 44°07' E 028°39'0 0.0
2017-Nov-30 17:30N 44°07' E 028°39'0 0.0
2017-Nov-30 17:00N 44°07' E 028°39'0 0.0
2017-Nov-30 16:30N 44°07' E 028°39'0 0.0
2017-Nov-30 16:00N 44°07' E 028°39'0 0.0
2017-Nov-30 15:30N 44°07' E 028°39'0 0.0
2017-Nov-30 15:00N 44°07' E 028°39'0 0.0
2017-Nov-30 14:27N 44°07' E 028°39'0 0.0
2017-Nov-30 14:00N 44°07' E 028°39'0 0.0
2017-Nov-30 13:30N 44°07' E 028°39'0 0.0
2017-Nov-30 13:00N 44°07' E 028°39'0 0.0
2017-Nov-30 12:30N 44°07' E 028°39'0 0.0
2017-Nov-30 12:00N 44°07' E 028°39'0 0.0
2017-Nov-30 11:30N 44°07' E 028°39'0 0.0
2017-Nov-30 11:00N 44°07' E 028°39'0 0.0
2017-Nov-30 10:30N 44°07' E 028°39'0 0.0
2017-Nov-30 10:00N 44°07' E 028°39'0 0.0
2017-Nov-30 09:30N 44°07' E 028°39'0 0.0
2017-Nov-30 09:00N 44°07' E 028°39'0 0.0
2017-Nov-30 08:30N 44°07' E 028°39'0 0.0
2017-Nov-30 08:00N 44°07' E 028°39'0 0.0
2017-Nov-30 07:30N 44°07' E 028°39'0 0.0
2017-Nov-30 07:00N 44°07' E 028°39'0 0.0
2017-Nov-30 06:30N 44°07' E 028°39'0 0.0
2017-Nov-30 06:00N 44°07' E 028°39'0 0.0
2017-Nov-30 05:30N 44°07' E 028°39'0 0.0
2017-Nov-30 05:00N 44°07' E 028°39'0 0.0
2017-Nov-30 04:30N 44°07' E 028°39'0 0.0
2017-Nov-30 03:54N 44°07' E 028°39'0 0.0
2017-Nov-30 03:30N 44°07' E 028°39'0 0.0
2017-Nov-30 03:00N 44°07' E 028°39'0 0.0
2017-Nov-30 02:30N 44°07' E 028°39'0 0.0
2017-Nov-30 02:00N 44°07' E 028°39'0 0.0
2017-Nov-30 01:30N 44°07' E 028°39'0 0.0
2017-Nov-30 01:00N 44°07' E 028°39'0 0.0
2017-Nov-30 00:27N 44°07' E 028°39'0 0.0
2017-Nov-30 00:00N 44°07' E 028°39'0 0.0
2017-Nov-29 23:30N 44°07' E 028°39'0 0.0
2017-Nov-29 23:00N 44°07' E 028°39'0 0.0
2017-Nov-29 22:30N 44°07' E 028°39'0 0.0
2017-Nov-29 22:00N 44°07' E 028°39'0 0.0
2017-Nov-29 21:24N 44°07' E 028°39'0 0.0
2017-Nov-29 20:57N 44°07' E 028°39'0 0.0
2017-Nov-29 20:30N 44°07' E 028°39'0 0.0
2017-Nov-29 19:54N 44°07' E 028°39'0 0.0
2017-Nov-29 19:30N 44°07' E 028°39'0 0.0
2017-Nov-29 19:00N 44°07' E 028°39'0 0.0
2017-Nov-29 18:27N 44°07' E 028°39'0 0.0
2017-Nov-29 18:00N 44°07' E 028°39'0 0.0
2017-Nov-29 17:30N 44°07' E 028°39'0 0.0
2017-Nov-29 17:00N 44°07' E 028°39'0 0.0
2017-Nov-29 16:30N 44°07' E 028°39'0 0.0
2017-Nov-29 16:00N 44°07' E 028°39'0 0.0
2017-Nov-29 15:27N 44°07' E 028°39'0 0.0
2017-Nov-29 15:00N 44°07' E 028°39'0 0.0
2017-Nov-29 14:30N 44°07' E 028°39'0 0.0
2017-Nov-29 14:00N 44°07' E 028°39'0 0.0
2017-Nov-29 13:27N 44°07' E 028°39'0 0.0
2017-Nov-29 13:00N 44°07' E 028°39'0 0.0
2017-Nov-29 12:30N 44°07' E 028°39'0 0.0
2017-Nov-29 12:00N 44°07' E 028°39'0 0.0
2017-Nov-29 11:30N 44°07' E 028°39'0 0.0
2017-Nov-29 11:00N 44°07' E 028°39'0 0.3
2017-Nov-29 10:30N 44°07' E 028°39'0 0.5
2017-Nov-29 10:00N 44°07' E 028°39'0 0.0
2017-Nov-29 09:27N 44°07' E 028°39'0 0.0
2017-Nov-29 09:00N 44°07' E 028°39'0 0.0
2017-Nov-29 08:30N 44°07' E 028°39'0 0.3
2017-Nov-29 08:00N 44°07' E 028°39'0 0.5
2017-Nov-29 07:29N 44°07' E 028°39'0 0.0
2017-Nov-29 06:56N 44°07' E 028°39'0 0.0
2017-Nov-29 06:29N 44°07' E 028°39'0 0.0
2017-Nov-29 05:56N 44°07' E 028°39'0 0.0
2017-Nov-29 05:29N 44°07' E 028°39'0 0.0
2017-Nov-29 04:59N 44°07' E 028°39'0 0.0
2017-Nov-29 04:29N 44°07' E 028°39'0 0.0
2017-Nov-29 03:59N 44°07' E 028°39'0 0.0
2017-Nov-29 03:29N 44°07' E 028°39'0 0.0
2017-Nov-29 02:59N 44°07' E 028°39'0 0.0
2017-Nov-29 02:29N 44°07' E 028°39'0 0.0
2017-Nov-29 01:59N 44°07' E 028°39'0 0.0
2017-Nov-29 01:29N 44°07' E 028°39'0 0.0
2017-Nov-29 00:59N 44°07' E 028°39'0 0.0
2017-Nov-29 00:26N 44°07' E 028°39'0 0.0
2017-Nov-28 23:59N 44°07' E 028°39'0 0.0
2017-Nov-28 23:23N 44°07' E 028°39'0 0.0
2017-Nov-28 22:59N 44°07' E 028°39'0 0.0
2017-Nov-28 22:29N 44°07' E 028°39'0 0.0
2017-Nov-28 21:59N 44°07' E 028°39'0 0.0
2017-Nov-28 21:29N 44°07' E 028°39'0 0.0
2017-Nov-28 20:59N 44°07' E 028°39'0 0.0
2017-Nov-28 20:29N 44°07' E 028°39'0 0.0
2017-Nov-28 19:59N 44°07' E 028°39'0 0.0
2017-Nov-28 19:29N 44°07' E 028°39'0 0.0
2017-Nov-28 18:59N 44°07' E 028°39'0 0.0
2017-Nov-28 18:29N 44°07' E 028°39'0 0.0
2017-Nov-28 17:59N 44°07' E 028°39'0 0.0
2017-Nov-28 17:29N 44°07' E 028°39'0 0.0
2017-Nov-28 16:59N 44°07' E 028°39'0 0.0
2017-Nov-28 16:29N 44°07' E 028°39'0 0.0
2017-Nov-28 15:59N 44°07' E 028°39'0 0.0
2017-Nov-28 14:59N 44°07' E 028°39'0 0.0
2017-Nov-28 14:29N 44°07' E 028°39'0 0.0
2017-Nov-28 13:59N 44°07' E 028°39'0 0.0
2017-Nov-28 13:29N 44°07' E 028°39'0 0.0
2017-Nov-28 12:59N 44°07' E 028°39'0 0.0
2017-Nov-28 12:29N 44°07' E 028°39'0 0.0
2017-Nov-28 11:59N 44°07' E 028°39'0 0.0
2017-Nov-28 11:29N 44°07' E 028°39'0 0.0
2017-Nov-28 10:59N 44°07' E 028°39'0 0.0
2017-Nov-28 10:29N 44°07' E 028°39'0 0.0
2017-Nov-28 09:59N 44°07' E 028°39'0 0.0
2017-Nov-28 09:29N 44°07' E 028°39'0 0.0
2017-Nov-28 08:59N 44°07' E 028°39'0 0.0
2017-Nov-28 08:29N 44°07' E 028°39'0 0.0
2017-Nov-28 07:59N 44°07' E 028°39'0 0.0
2017-Nov-28 07:29N 44°07' E 028°39'0 0.0
2017-Nov-28 06:59N 44°07' E 028°39'0 0.0
2017-Nov-28 06:29N 44°07' E 028°39'  

Dump ship's entire track history